createdAt,value
2017-12-24T04:06:38.889Z,9.30
2017-12-24T04:09:07.009Z,9.30
2017-12-24T04:11:35.160Z,9.30
2017-12-24T04:14:03.319Z,9.30
2017-12-24T04:16:32.218Z,9.30
2017-12-24T04:19:00.367Z,9.30
2017-12-24T04:21:28.494Z,9.30
2017-12-24T04:23:56.641Z,9.30
2017-12-24T04:26:24.770Z,9.30
2017-12-24T04:28:52.929Z,9.20
2017-12-24T04:31:21.049Z,9.30
2017-12-24T04:33:49.967Z,9.30
2017-12-24T04:36:18.093Z,9.30
2017-12-24T04:38:46.240Z,9.30
2017-12-24T04:41:14.365Z,9.30
2017-12-24T04:43:42.526Z,9.30
2017-12-24T04:46:11.421Z,9.30
2017-12-24T04:48:39.575Z,9.20
2017-12-24T04:51:07.694Z,9.20
2017-12-24T04:53:35.854Z,9.20
2017-12-24T04:56:03.977Z,9.20
2017-12-24T04:58:32.126Z,9.20
2017-12-24T05:01:00.259Z,9.20
2017-12-24T05:03:28.410Z,9.20
2017-12-24T05:05:56.531Z,9.20
2017-12-24T05:08:24.679Z,9.20
2017-12-24T05:10:52.809Z,9.20
2017-12-24T05:13:20.957Z,9.20
2017-12-24T05:15:49.082Z,9.20
2017-12-24T05:18:17.232Z,9.20
2017-12-24T05:20:45.355Z,9.20
2017-12-24T05:23:13.504Z,9.20
2017-12-24T05:25:41.626Z,9.10
2017-12-24T05:28:09.775Z,9.10
2017-12-24T05:30:37.902Z,9.00
2017-12-24T05:33:06.056Z,9.00
2017-12-24T05:35:34.183Z,8.90
2017-12-24T05:38:02.357Z,8.90
2017-12-24T05:40:31.251Z,8.80
2017-12-24T05:42:59.402Z,8.80
2017-12-24T05:45:27.526Z,8.80
2017-12-24T05:47:55.684Z,8.80
2017-12-24T05:50:23.816Z,8.70
2017-12-24T05:52:51.972Z,8.70
2017-12-24T05:55:20.106Z,8.70
2017-12-24T05:57:48.260Z,8.70
2017-12-24T06:00:16.393Z,8.70
2017-12-24T06:02:44.544Z,8.70
2017-12-24T06:05:12.670Z,8.60
2017-12-24T06:07:41.589Z,8.60
2017-12-24T06:10:09.719Z,8.60
2017-12-24T06:12:37.878Z,8.60
2017-12-24T06:15:06.005Z,8.60
2017-12-24T06:17:34.186Z,8.50
2017-12-24T06:20:02.313Z,8.50
2017-12-24T06:22:30.451Z,8.50
2017-12-24T06:24:58.602Z,8.50
2017-12-24T06:27:26.726Z,8.50
2017-12-24T06:29:54.877Z,8.50
2017-12-24T06:32:23.008Z,8.50
2017-12-24T06:34:51.956Z,8.50
2017-12-24T06:37:20.073Z,8.50
2017-12-24T06:39:48.998Z,8.50
2017-12-24T06:42:17.143Z,8.50
2017-12-24T06:44:45.304Z,8.50
2017-12-24T06:47:13.431Z,8.50
2017-12-24T06:49:41.583Z,8.50
2017-12-24T06:52:09.709Z,8.50
2017-12-24T06:54:37.860Z,8.50
2017-12-24T06:57:05.990Z,8.50
2017-12-24T06:59:34.167Z,8.50
2017-12-24T07:02:02.287Z,8.50
2017-12-24T07:04:30.442Z,8.50
2017-12-24T07:06:58.568Z,8.50
2017-12-24T07:09:26.717Z,8.50
2017-12-24T07:11:54.837Z,8.50
2017-12-24T07:14:22.985Z,8.50
2017-12-24T07:16:51.894Z,8.50
2017-12-24T07:19:20.061Z,8.50
2017-12-24T07:21:48.194Z,8.50
2017-12-24T07:24:16.343Z,8.50
2017-12-24T07:26:44.505Z,8.50
2017-12-24T07:29:12.654Z,8.50
2017-12-24T07:31:40.835Z,8.50
2017-12-24T07:34:09.015Z,8.50
2017-12-24T07:36:37.142Z,8.50
2017-12-24T07:39:05.298Z,8.50
2017-12-24T07:41:33.431Z,8.50
2017-12-24T07:44:01.577Z,8.50
2017-12-24T07:46:29.709Z,8.50
2017-12-24T07:48:57.863Z,8.50
2017-12-24T07:51:25.982Z,8.50
2017-12-24T07:53:54.134Z,8.50
2017-12-24T07:56:22.279Z,8.50
2017-12-24T07:58:50.573Z,8.50
2017-12-24T08:01:18.700Z,8.50
2017-12-24T08:03:46.853Z,8.50
2017-12-24T08:06:15.267Z,8.50
2017-12-24T08:08:43.448Z,8.60
2017-12-24T08:11:11.575Z,8.50
2017-12-24T08:13:39.741Z,8.50
2017-12-24T08:16:07.860Z,8.50
2017-12-24T08:18:36.009Z,8.50
2017-12-24T08:21:04.137Z,8.50
2017-12-24T08:23:32.294Z,8.50
2017-12-24T08:26:00.415Z,8.50
2017-12-24T08:28:28.543Z,8.60
2017-12-24T08:30:56.704Z,8.60
2017-12-24T08:33:27.831Z,8.60
2017-12-24T08:35:56.031Z,8.60
2017-12-24T08:38:24.151Z,8.50
2017-12-24T08:40:52.316Z,8.50
2017-12-24T08:43:20.441Z,8.60
2017-12-24T08:45:48.601Z,8.60
2017-12-24T08:48:16.738Z,8.60
2017-12-24T08:50:44.896Z,8.60
2017-12-24T08:53:13.033Z,8.60
2017-12-24T08:55:41.185Z,8.60
2017-12-24T08:58:09.314Z,8.60
2017-12-24T09:00:37.506Z,8.60
2017-12-24T09:03:05.626Z,8.60
2017-12-24T09:05:33.787Z,8.60
2017-12-24T09:08:01.907Z,8.60
2017-12-24T09:10:30.067Z,8.60
2017-12-24T09:12:58.201Z,8.60
2017-12-24T09:15:26.353Z,8.60
2017-12-24T09:17:54.479Z,8.70
2017-12-24T09:20:22.644Z,8.60
2017-12-24T09:22:50.771Z,8.60
2017-12-24T09:25:18.945Z,8.60
2017-12-24T09:27:47.066Z,8.60
2017-12-24T09:30:15.218Z,8.70
2017-12-24T09:32:44.115Z,8.70
2017-12-24T09:35:12.280Z,8.60
2017-12-24T09:37:41.178Z,8.70
2017-12-24T09:40:09.375Z,8.70
2017-12-24T09:42:37.501Z,8.70
2017-12-24T09:45:05.668Z,8.70
2017-12-24T09:47:33.790Z,8.80
2017-12-24T09:50:01.955Z,8.80
2017-12-24T09:52:30.108Z,8.80
2017-12-24T09:54:58.309Z,8.80
2017-12-24T09:57:26.434Z,8.80
2017-12-24T09:59:54.590Z,8.90
2017-12-24T10:02:22.708Z,8.90
2017-12-24T10:04:50.860Z,8.90
2017-12-24T10:07:18.982Z,8.90
2017-12-24T10:09:47.157Z,8.90
2017-12-24T10:12:15.287Z,8.80
2017-12-24T10:14:43.449Z,8.90
2017-12-24T10:17:11.568Z,8.90
2017-12-24T10:19:39.715Z,8.80
2017-12-24T10:22:08.606Z,8.80
2017-12-24T10:24:36.802Z,8.80
2017-12-24T10:27:04.932Z,8.80
2017-12-24T10:29:33.110Z,8.80
2017-12-24T10:32:01.239Z,8.90
2017-12-24T10:34:29.389Z,8.90
2017-12-24T10:36:57.518Z,8.90
2017-12-24T10:39:25.669Z,8.90
2017-12-24T10:41:53.798Z,8.90
2017-12-24T10:44:21.927Z,8.90
2017-12-24T10:46:50.093Z,8.90
2017-12-24T10:49:18.238Z,8.90
2017-12-24T10:51:46.407Z,9.00
2017-12-24T10:54:14.621Z,9.00
2017-12-24T10:56:42.784Z,9.00
2017-12-24T10:59:10.909Z,9.00
2017-12-24T11:01:39.838Z,9.00
2017-12-24T11:04:07.995Z,9.00
2017-12-24T11:06:36.171Z,9.00
2017-12-24T11:09:04.294Z,9.00
2017-12-24T11:11:32.441Z,9.00
2017-12-24T11:14:00.570Z,9.00
2017-12-24T11:16:28.755Z,9.00
2017-12-24T11:18:56.915Z,9.00
2017-12-24T11:21:25.057Z,9.10
2017-12-24T11:23:53.192Z,9.10
2017-12-24T11:26:21.338Z,9.10
2017-12-24T11:28:50.238Z,9.10
2017-12-24T11:31:18.432Z,9.10
2017-12-24T11:33:46.589Z,9.10
2017-12-24T11:36:14.749Z,9.10
2017-12-24T11:38:42.900Z,9.10
2017-12-24T11:41:11.068Z,9.10
2017-12-24T11:43:39.192Z,9.10
2017-12-24T11:46:07.339Z,9.10
2017-12-24T11:48:35.465Z,9.10
2017-12-24T11:51:03.627Z,9.10
2017-12-24T11:53:31.758Z,9.10
2017-12-24T11:55:59.937Z,9.10
2017-12-24T11:58:28.087Z,9.10
2017-12-24T12:00:56.245Z,9.20
2017-12-24T12:03:24.401Z,9.10
2017-12-24T12:05:52.573Z,9.10
2017-12-24T12:08:20.732Z,9.10
2017-12-24T12:10:48.896Z,9.10
2017-12-24T12:13:17.065Z,9.10
2017-12-24T12:15:45.211Z,9.10
2017-12-24T12:18:14.103Z,9.20
2017-12-24T12:20:42.249Z,9.20
2017-12-24T12:23:10.377Z,9.20
2017-12-24T12:25:38.525Z,9.20
2017-12-24T12:28:06.653Z,9.20
2017-12-24T12:30:34.797Z,9.10
2017-12-24T12:33:02.922Z,9.20
2017-12-24T12:35:31.070Z,9.10
2017-12-24T12:37:59.201Z,9.10
2017-12-24T12:40:27.353Z,9.10
2017-12-24T12:42:55.478Z,9.10
2017-12-24T12:45:23.647Z,9.10
2017-12-24T12:47:51.771Z,9.10
2017-12-24T12:50:19.944Z,9.10
2017-12-24T12:52:48.074Z,9.00
2017-12-24T12:55:16.234Z,9.00
2017-12-24T12:57:44.353Z,9.00
2017-12-24T13:00:12.501Z,9.00
2017-12-24T13:02:40.643Z,9.00
2017-12-24T13:05:08.818Z,9.00
2017-12-24T13:07:36.942Z,9.00
2017-12-24T13:10:05.075Z,9.00
2017-12-24T13:12:33.231Z,8.90
2017-12-24T13:15:01.577Z,8.90
2017-12-24T13:17:29.822Z,8.90
2017-12-24T13:19:57.929Z,8.90
2017-12-24T13:22:26.109Z,8.90
2017-12-24T13:24:54.245Z,8.90
2017-12-24T13:27:22.409Z,8.90
2017-12-24T13:29:50.560Z,8.90
2017-12-24T13:32:18.802Z,8.90
2017-12-24T13:34:46.950Z,8.90
2017-12-24T13:37:15.114Z,8.90
2017-12-24T13:39:43.255Z,8.80
2017-12-24T13:42:11.428Z,8.80
2017-12-24T13:44:39.604Z,8.90
2017-12-24T13:47:07.793Z,8.90
2017-12-24T13:49:36.693Z,8.80
2017-12-24T13:52:04.858Z,8.80
2017-12-24T13:54:33.004Z,8.90
2017-12-24T13:57:01.940Z,8.80
2017-12-24T13:59:30.069Z,8.80
2017-12-24T14:01:58.993Z,8.80
2017-12-24T14:04:27.130Z,8.80
2017-12-24T14:06:56.050Z,8.80
2017-12-24T14:09:24.191Z,8.80
2017-12-24T14:11:53.202Z,8.80
2017-12-24T14:14:21.379Z,8.80
2017-12-24T14:16:49.533Z,8.80
2017-12-24T14:19:17.662Z,8.80
2017-12-24T14:21:45.845Z,8.80
2017-12-24T14:24:13.987Z,8.80
2017-12-24T14:26:42.143Z,8.80
2017-12-24T14:29:10.290Z,8.80
2017-12-24T14:31:38.470Z,8.80
2017-12-24T14:34:06.607Z,8.80
2017-12-24T14:36:34.776Z,8.80
2017-12-24T14:39:02.917Z,8.80
2017-12-24T14:41:31.866Z,8.80
2017-12-24T14:44:00.013Z,8.80
2017-12-24T14:46:28.203Z,8.80
2017-12-24T14:48:56.329Z,8.80
2017-12-24T14:51:24.492Z,8.80
2017-12-24T14:53:52.695Z,8.80
2017-12-24T14:56:20.970Z,8.90
2017-12-24T14:58:49.118Z,8.90
2017-12-24T15:01:17.270Z,8.90
2017-12-24T15:03:45.425Z,8.80
2017-12-24T15:06:13.580Z,8.90
2017-12-24T15:08:41.700Z,8.90
2017-12-24T15:11:09.863Z,8.90
2017-12-24T15:13:37.997Z,8.90
2017-12-24T15:16:06.157Z,8.90
2017-12-24T15:18:34.319Z,8.90
2017-12-24T15:21:02.482Z,8.90
2017-12-24T15:23:30.636Z,8.90
2017-12-24T15:25:59.521Z,8.90
2017-12-24T15:28:27.679Z,8.80
2017-12-24T15:30:55.805Z,8.90
2017-12-24T15:33:24.809Z,8.80
2017-12-24T15:35:52.962Z,8.80
2017-12-24T15:38:21.119Z,8.80
2017-12-24T15:40:50.005Z,8.80
2017-12-24T15:43:18.926Z,8.80
2017-12-24T15:45:47.082Z,8.80
2017-12-24T15:48:15.257Z,8.80
2017-12-24T15:50:43.433Z,8.80
2017-12-24T15:53:11.598Z,8.80
2017-12-24T15:55:40.504Z,8.80
2017-12-24T15:58:08.663Z,8.80
2017-12-24T16:00:36.795Z,8.80
2017-12-24T16:03:04.956Z,8.80
2017-12-24T16:05:33.099Z,8.80
2017-12-24T16:08:01.302Z,8.80
2017-12-24T16:10:29.441Z,8.80
2017-12-24T16:12:57.603Z,8.80
2017-12-24T16:15:26.507Z,8.80
2017-12-24T16:17:54.659Z,8.80
2017-12-24T16:20:23.552Z,8.80
2017-12-24T16:22:51.703Z,8.80
2017-12-24T16:25:19.842Z,8.80
2017-12-24T16:27:48.005Z,8.80
2017-12-24T16:30:16.155Z,8.80
2017-12-24T16:32:44.326Z,8.80
2017-12-24T16:35:13.228Z,8.80
2017-12-24T16:37:41.539Z,8.80
2017-12-24T16:40:09.678Z,8.90
2017-12-24T16:42:37.831Z,8.80
2017-12-24T16:45:06.766Z,8.90
2017-12-24T16:47:34.946Z,8.80
2017-12-24T16:50:03.118Z,8.90
2017-12-24T16:52:31.279Z,8.90
2017-12-24T16:54:59.422Z,8.90
2017-12-24T16:57:28.349Z,8.90
2017-12-24T16:59:56.506Z,8.90
2017-12-24T17:02:24.678Z,8.90
2017-12-24T17:04:52.805Z,8.90
2017-12-24T17:07:20.967Z,9.00
2017-12-24T17:09:49.098Z,9.00
2017-12-24T17:12:17.250Z,9.00
2017-12-24T17:14:45.381Z,9.00
2017-12-24T17:17:13.546Z,9.00
2017-12-24T17:19:41.673Z,9.00
2017-12-24T17:22:10.604Z,9.00
2017-12-24T17:24:38.755Z,9.00
2017-12-24T17:27:06.904Z,9.00
2017-12-24T17:29:35.050Z,9.10
2017-12-24T17:32:03.216Z,9.00
2017-12-24T17:34:31.352Z,9.00
2017-12-24T17:36:59.521Z,9.10
2017-12-24T17:39:27.680Z,9.00
2017-12-24T17:41:55.838Z,9.10
2017-12-24T17:44:23.970Z,9.10
2017-12-24T17:46:52.098Z,9.10
2017-12-24T17:49:20.260Z,9.10
2017-12-24T17:51:48.436Z,9.10
2017-12-24T17:54:16.606Z,9.10
2017-12-24T17:56:44.733Z,9.10
2017-12-24T17:59:12.891Z,9.10
2017-12-24T18:01:41.039Z,9.10
2017-12-24T18:04:10.035Z,9.10
2017-12-24T18:06:38.946Z,9.10
2017-12-24T18:09:07.107Z,9.10
2017-12-24T18:11:36.009Z,9.10
2017-12-24T18:14:04.262Z,9.10
2017-12-24T18:16:32.468Z,9.10
2017-12-24T18:19:00.635Z,9.10
2017-12-24T18:21:28.783Z,9.10
2017-12-24T18:23:56.938Z,9.10
2017-12-24T18:26:25.072Z,9.00
2017-12-24T18:28:53.377Z,9.00
2017-12-24T18:31:21.555Z,9.00
2017-12-24T18:33:49.999Z,9.00
2017-12-24T18:36:18.407Z,8.90
2017-12-24T18:38:47.333Z,8.90
2017-12-24T18:41:15.979Z,8.90
2017-12-24T18:43:44.634Z,8.90
2017-12-24T18:46:13.030Z,8.90
2017-12-24T18:48:41.634Z,8.90
2017-12-24T18:51:09.945Z,8.90
2017-12-24T18:53:38.792Z,8.90
2017-12-24T18:56:09.024Z,8.90
2017-12-24T18:58:37.822Z,8.90
2017-12-24T19:01:07.065Z,8.90
2017-12-24T19:03:35.338Z,9.00
2017-12-24T19:06:03.493Z,9.00
2017-12-24T19:08:32.462Z,9.00
2017-12-24T19:11:00.611Z,8.90
2017-12-24T19:13:28.770Z,9.00
2017-12-24T19:15:57.003Z,8.90
2017-12-24T19:18:25.970Z,8.90
2017-12-24T19:20:54.134Z,8.90
2017-12-24T19:23:22.542Z,8.90
2017-12-24T19:25:50.755Z,8.90
2017-12-24T19:28:18.991Z,8.90
2017-12-24T19:30:47.276Z,8.90
2017-12-24T19:33:15.444Z,8.80
2017-12-24T19:35:43.579Z,8.80
2017-12-24T19:38:11.819Z,8.90
2017-12-24T19:40:39.971Z,8.80
2017-12-24T19:43:11.386Z,8.80
2017-12-24T19:45:39.579Z,8.80
2017-12-24T19:48:07.759Z,8.90
2017-12-24T19:50:35.894Z,8.80
2017-12-24T19:53:04.203Z,8.90
2017-12-24T19:55:32.368Z,8.80
2017-12-24T19:58:00.552Z,8.80
2017-12-24T20:00:28.760Z,8.90
2017-12-24T20:02:57.708Z,8.80
2017-12-24T20:05:27.460Z,8.80
2017-12-24T20:07:55.593Z,8.80
2017-12-24T20:10:23.747Z,8.80
2017-12-24T20:12:51.885Z,8.80
2017-12-24T20:15:20.061Z,8.80
2017-12-24T20:17:48.216Z,8.90
2017-12-24T20:20:16.380Z,8.90
2017-12-24T20:22:44.544Z,8.80
2017-12-24T20:25:15.058Z,8.90
2017-12-24T20:27:43.200Z,8.90
2017-12-24T20:30:11.379Z,8.90
2017-12-24T20:32:39.535Z,8.90
2017-12-24T20:35:07.768Z,8.90
2017-12-24T20:37:35.917Z,8.90
2017-12-24T20:40:04.203Z,8.90
2017-12-24T20:42:32.338Z,8.90
2017-12-24T20:45:00.643Z,8.90
2017-12-24T20:47:28.856Z,8.90
2017-12-24T20:49:57.131Z,8.90
2017-12-24T20:52:25.289Z,8.90
2017-12-24T20:54:53.473Z,8.90
2017-12-24T20:57:21.650Z,8.90
2017-12-24T20:59:49.787Z,8.90
2017-12-24T21:02:17.979Z,8.90
2017-12-24T21:04:46.147Z,8.90
2017-12-24T21:07:14.476Z,8.90
2017-12-24T21:09:42.617Z,8.90
2017-12-24T21:12:10.795Z,8.90
2017-12-24T21:14:38.947Z,8.90
2017-12-24T21:17:07.108Z,8.90
2017-12-24T21:19:35.266Z,9.00
2017-12-24T21:22:03.467Z,9.00
2017-12-24T21:24:31.660Z,9.00
2017-12-24T21:26:59.948Z,9.00
2017-12-24T21:29:28.214Z,9.00
2017-12-24T21:31:56.398Z,9.00
2017-12-24T21:34:24.551Z,9.10
2017-12-24T21:36:52.730Z,9.10
2017-12-24T21:39:20.917Z,9.20
2017-12-24T21:41:49.119Z,9.20
2017-12-24T21:44:17.250Z,9.20
2017-12-24T21:46:45.487Z,9.20
2017-12-24T21:49:13.675Z,9.20
2017-12-24T21:51:41.831Z,9.20
2017-12-24T21:54:09.970Z,9.20
2017-12-24T21:56:38.894Z,9.30
2017-12-24T21:59:07.034Z,9.20
2017-12-24T22:01:35.170Z,9.30
2017-12-24T22:04:23.743Z,9.30
2017-12-24T22:06:52.018Z,9.30
2017-12-24T22:09:20.240Z,9.30
2017-12-24T22:11:48.470Z,9.30
2017-12-24T22:14:16.661Z,9.30
2017-12-24T22:16:45.661Z,9.30
2017-12-24T22:19:14.573Z,9.40
2017-12-24T22:21:42.765Z,9.30
2017-12-24T22:24:10.992Z,9.40
2017-12-24T22:26:39.255Z,9.30
2017-12-24T22:29:07.415Z,9.30
2017-12-24T22:31:35.553Z,9.40
2017-12-24T22:34:04.556Z,9.30
2017-12-24T22:36:32.746Z,9.30
2017-12-24T22:39:00.922Z,9.30
2017-12-24T22:41:29.073Z,9.30
2017-12-24T22:43:57.264Z,9.30
2017-12-24T22:46:25.417Z,9.30
2017-12-24T22:48:53.596Z,9.40
2017-12-24T22:51:21.797Z,9.40
2017-12-24T22:53:49.992Z,9.40
2017-12-24T22:56:18.242Z,9.50
2017-12-24T23:01:14.609Z,9.40
2017-12-24T23:03:42.771Z,9.40
2017-12-24T23:06:10.979Z,9.50
2017-12-24T23:08:39.180Z,9.50
2017-12-24T23:11:07.330Z,9.50
2017-12-24T23:13:35.598Z,9.50
2017-12-24T23:16:03.749Z,9.50
2017-12-24T23:18:31.929Z,9.50
2017-12-24T23:21:00.105Z,9.50
2017-12-24T23:23:28.294Z,9.50
2017-12-24T23:25:56.513Z,9.50
2017-12-24T23:28:24.662Z,9.50
2017-12-24T23:30:53.597Z,9.50
2017-12-24T23:33:21.840Z,9.50
2017-12-24T23:35:50.015Z,9.60
2017-12-24T23:38:18.161Z,9.60
2017-12-24T23:40:47.115Z,9.60
2017-12-24T23:43:15.249Z,9.60
2017-12-24T23:45:43.452Z,9.60
2017-12-24T23:48:11.586Z,9.60
2017-12-24T23:50:39.754Z,9.60
2017-12-24T23:53:08.662Z,9.60
2017-12-24T23:55:36.882Z,9.60
2017-12-24T23:58:05.070Z,9.50
